sensor_id;sensor_type;location;lat;lon;timestamp;P1;durP1;ratioP1;P2;durP2;ratioP2
42168;SDS011;27838;43.858;25.974;2023-04-01T00:01:14;8.45;;;4.30;;
42168;SDS011;27838;43.858;25.974;2023-04-01T00:03:41;7.47;;;4.35;;
42168;SDS011;27838;43.858;25.974;2023-04-01T00:06:09;13.13;;;5.43;;
42168;SDS011;27838;43.858;25.974;2023-04-01T00:08:38;14.48;;;5.35;;
42168;SDS011;27838;43.858;25.974;2023-04-01T00:11:05;14.82;;;5.82;;
42168;SDS011;27838;43.858;25.974;2023-04-01T00:13:31;9.82;;;5.88;;
42168;SDS011;27838;43.858;25.974;2023-04-01T00:15:58;16.45;;;8.18;;
42168;SDS011;27838;43.858;25.974;2023-04-01T00:18:26;19.85;;;9.88;;
42168;SDS011;27838;43.858;25.974;2023-04-01T00:20:53;8.75;;;4.93;;
42168;SDS011;27838;43.858;25.974;2023-04-01T00:23:20;7.30;;;3.97;;
42168;SDS011;27838;43.858;25.974;2023-04-01T00:25:47;6.93;;;3.85;;
42168;SDS011;27838;43.858;25.974;2023-04-01T00:28:18;12.68;;;4.40;;
42168;SDS011;27838;43.858;25.974;2023-04-01T00:30:46;6.85;;;4.05;;
42168;SDS011;27838;43.858;25.974;2023-04-01T00:33:13;6.47;;;3.90;;
42168;SDS011;27838;43.858;25.974;2023-04-01T00:35:40;18.27;;;5.07;;
42168;SDS011;27838;43.858;25.974;2023-04-01T00:38:06;33.08;;;7.90;;
42168;SDS011;27838;43.858;25.974;2023-04-01T00:40:34;23.33;;;6.80;;
42168;SDS011;27838;43.858;25.974;2023-04-01T00:43:03;10.95;;;6.85;;
42168;SDS011;27838;43.858;25.974;2023-04-01T00:45:36;11.40;;;6.68;;
42168;SDS011;27838;43.858;25.974;2023-04-01T00:48:27;14.50;;;7.72;;
42168;SDS011;27838;43.858;25.974;2023-04-01T00:54:03;8.15;;;4.18;;
42168;SDS011;27838;43.858;25.974;2023-04-01T00:56:34;5.75;;;4.15;;
42168;SDS011;27838;43.858;25.974;2023-04-01T00:59:06;10.65;;;4.28;;
42168;SDS011;27838;43.858;25.974;2023-04-01T01:01:36;11.00;;;4.10;;
42168;SDS011;27838;43.858;25.974;2023-04-01T01:04:03;4.32;;;3.60;;
42168;SDS011;27838;43.858;25.974;2023-04-01T01:17:09;7.43;;;4.30;;
42168;SDS011;27838;43.858;25.974;2023-04-01T01:20:01;11.80;;;3.72;;
42168;SDS011;27838;43.858;25.974;2023-04-01T01:25:25;7.57;;;3.78;;
42168;SDS011;27838;43.858;25.974;2023-04-01T01:30:57;5.45;;;3.28;;
42168;SDS011;27838;43.858;25.974;2023-04-01T01:36:14;8.18;;;3.97;;
42168;SDS011;27838;43.858;25.974;2023-04-01T01:38:43;11.48;;;4.43;;
42168;SDS011;27838;43.858;25.974;2023-04-01T01:41:12;6.80;;;3.70;;
42168;SDS011;27838;43.858;25.974;2023-04-01T01:43:43;7.63;;;3.97;;
42168;SDS011;27838;43.858;25.974;2023-04-01T01:46:14;7.70;;;3.70;;
42168;SDS011;27838;43.858;25.974;2023-04-01T01:48:45;6.53;;;3.60;;
42168;SDS011;27838;43.858;25.974;2023-04-01T01:51:13;4.95;;;3.50;;
42168;SDS011;27838;43.858;25.974;2023-04-01T01:53:40;5.03;;;3.60;;
42168;SDS011;27838;43.858;25.974;2023-04-01T01:56:07;4.10;;;3.50;;
42168;SDS011;27838;43.858;25.974;2023-04-01T01:58:44;4.80;;;3.65;;
42168;SDS011;27838;43.858;25.974;2023-04-01T02:01:15;7.63;;;3.42;;
42168;SDS011;27838;43.858;25.974;2023-04-01T02:03:46;8.43;;;3.70;;
42168;SDS011;27838;43.858;25.974;2023-04-01T02:06:15;4.35;;;3.28;;
42168;SDS011;27838;43.858;25.974;2023-04-01T02:09:06;6.50;;;3.45;;
42168;SDS011;27838;43.858;25.974;2023-04-01T02:14:06;3.53;;;3.00;;
42168;SDS011;27838;43.858;25.974;2023-04-01T02:16:42;4.72;;;3.53;;
42168;SDS011;27838;43.858;25.974;2023-04-01T02:19:25;8.20;;;3.45;;
42168;SDS011;27838;43.858;25.974;2023-04-01T02:21:57;5.05;;;3.13;;
42168;SDS011;27838;43.858;25.974;2023-04-01T02:24:28;5.38;;;3.20;;
42168;SDS011;27838;43.858;25.974;2023-04-01T02:26:57;6.15;;;3.40;;
42168;SDS011;27838;43.858;25.974;2023-04-01T02:29:25;7.25;;;3.83;;
42168;SDS011;27838;43.858;25.974;2023-04-01T02:31:53;10.77;;;5.20;;
42168;SDS011;27838;43.858;25.974;2023-04-01T02:34:21;12.43;;;7.80;;
42168;SDS011;27838;43.858;25.974;2023-04-01T02:36:50;15.95;;;7.53;;
42168;SDS011;27838;43.858;25.974;2023-04-01T02:39:18;15.93;;;8.25;;
42168;SDS011;27838;43.858;25.974;2023-04-01T02:41:45;15.18;;;7.88;;
42168;SDS011;27838;43.858;25.974;2023-04-01T02:44:12;14.23;;;8.35;;
42168;SDS011;27838;43.858;25.974;2023-04-01T02:46:40;11.88;;;8.77;;
42168;SDS011;27838;43.858;25.974;2023-04-01T02:49:07;17.30;;;7.82;;
42168;SDS011;27838;43.858;25.974;2023-04-01T02:51:34;21.48;;;10.20;;
42168;SDS011;27838;43.858;25.974;2023-04-01T02:54:01;21.42;;;9.55;;
42168;SDS011;27838;43.858;25.974;2023-04-01T02:56:28;13.07;;;8.57;;
42168;SDS011;27838;43.858;25.974;2023-04-01T02:58:54;14.52;;;8.80;;
42168;SDS011;27838;43.858;25.974;2023-04-01T03:01:21;18.60;;;9.20;;
42168;SDS011;27838;43.858;25.974;2023-04-01T03:03:48;12.18;;;9.10;;
42168;SDS011;27838;43.858;25.974;2023-04-01T03:06:16;16.23;;;8.50;;
42168;SDS011;27838;43.858;25.974;2023-04-01T03:08:43;16.98;;;8.88;;
42168;SDS011;27838;43.858;25.974;2023-04-01T03:11:10;10.70;;;8.38;;
42168;SDS011;27838;43.858;25.974;2023-04-01T03:13:37;20.92;;;9.48;;
42168;SDS011;27838;43.858;25.974;2023-04-01T03:16:03;15.25;;;8.75;;
42168;SDS011;27838;43.858;25.974;2023-04-01T03:18:30;11.35;;;8.10;;
42168;SDS011;27838;43.858;25.974;2023-04-01T03:20:57;19.83;;;8.30;;
42168;SDS011;27838;43.858;25.974;2023-04-01T03:23:23;11.95;;;8.23;;
42168;SDS011;27838;43.858;25.974;2023-04-01T03:25:50;18.23;;;8.55;;
42168;SDS011;27838;43.858;25.974;2023-04-01T03:28:16;9.27;;;7.97;;
42168;SDS011;27838;43.858;25.974;2023-04-01T03:30:43;16.00;;;9.65;;
42168;SDS011;27838;43.858;25.974;2023-04-01T03:33:10;12.60;;;7.85;;
42168;SDS011;27838;43.858;25.974;2023-04-01T03:35:36;14.00;;;8.18;;
42168;SDS011;27838;43.858;25.974;2023-04-01T03:38:03;15.75;;;8.50;;
42168;SDS011;27838;43.858;25.974;2023-04-01T03:40:29;11.57;;;8.40;;
42168;SDS011;27838;43.858;25.974;2023-04-01T03:42:56;11.25;;;8.25;;
42168;SDS011;27838;43.858;25.974;2023-04-01T03:45:22;15.90;;;8.43;;
42168;SDS011;27838;43.858;25.974;2023-04-01T03:47:49;16.00;;;9.13;;
42168;SDS011;27838;43.858;25.974;2023-04-01T03:50:15;13.25;;;8.90;;
42168;SDS011;27838;43.858;25.974;2023-04-01T03:52:42;19.42;;;9.00;;
42168;SDS011;27838;43.858;25.974;2023-04-01T03:55:08;15.48;;;9.30;;
42168;SDS011;27838;43.858;25.974;2023-04-01T03:57:35;12.07;;;8.65;;
42168;SDS011;27838;43.858;25.974;2023-04-01T04:00:02;16.33;;;8.65;;
42168;SDS011;27838;43.858;25.974;2023-04-01T04:02:29;11.88;;;8.20;;
42168;SDS011;27838;43.858;25.974;2023-04-01T04:04:55;13.27;;;8.07;;
42168;SDS011;27838;43.858;25.974;2023-04-01T04:07:22;17.58;;;8.38;;
42168;SDS011;27838;43.858;25.974;2023-04-01T04:09:48;17.08;;;8.32;;
42168;SDS011;27838;43.858;25.974;2023-04-01T04:12:15;18.35;;;8.80;;
42168;SDS011;27838;43.858;25.974;2023-04-01T04:14:41;23.58;;;10.23;;
42168;SDS011;27838;43.858;25.974;2023-04-01T04:17:09;26.13;;;9.95;;
42168;SDS011;27838;43.858;25.974;2023-04-01T04:19:41;16.92;;;9.60;;
42168;SDS011;27838;43.858;25.974;2023-04-01T04:22:08;17.75;;;8.32;;
42168;SDS011;27838;43.858;25.974;2023-04-01T04:24:35;11.45;;;7.70;;
42168;SDS011;27838;43.858;25.974;2023-04-01T04:27:02;16.60;;;8.80;;
42168;SDS011;27838;43.858;25.974;2023-04-01T04:29:29;18.15;;;9.48;;
42168;SDS011;27838;43.858;25.974;2023-04-01T04:31:55;13.02;;;7.97;;
42168;SDS011;27838;43.858;25.974;2023-04-01T04:34:22;13.55;;;7.80;;
42168;SDS011;27838;43.858;25.974;2023-04-01T04:36:49;20.27;;;9.45;;
42168;SDS011;27838;43.858;25.974;2023-04-01T04:39:15;10.85;;;7.93;;
42168;SDS011;27838;43.858;25.974;2023-04-01T04:41:42;17.02;;;10.15;;
42168;SDS011;27838;43.858;25.974;2023-04-01T04:44:08;15.95;;;8.95;;
42168;SDS011;27838;43.858;25.974;2023-04-01T04:46:35;19.95;;;9.32;;
42168;SDS011;27838;43.858;25.974;2023-04-01T04:49:02;22.17;;;8.02;;
42168;SDS011;27838;43.858;25.974;2023-04-01T04:51:29;27.00;;;10.45;;
42168;SDS011;27838;43.858;25.974;2023-04-01T04:53:55;33.70;;;13.45;;
42168;SDS011;27838;43.858;25.974;2023-04-01T04:56:22;18.48;;;9.60;;
42168;SDS011;27838;43.858;25.974;2023-04-01T04:58:50;21.83;;;10.75;;
42168;SDS011;27838;43.858;25.974;2023-04-01T05:01:17;20.40;;;10.57;;
42168;SDS011;27838;43.858;25.974;2023-04-01T05:03:44;20.15;;;9.32;;
42168;SDS011;27838;43.858;25.974;2023-04-01T05:06:12;20.60;;;8.98;;
42168;SDS011;27838;43.858;25.974;2023-04-01T05:08:40;16.15;;;10.70;;
42168;SDS011;27838;43.858;25.974;2023-04-01T05:11:09;18.38;;;9.30;;
42168;SDS011;27838;43.858;25.974;2023-04-01T05:13:42;32.72;;;13.10;;
42168;SDS011;27838;43.858;25.974;2023-04-01T05:16:13;26.20;;;12.23;;
42168;SDS011;27838;43.858;25.974;2023-04-01T05:18:42;74.00;;;47.92;;
42168;SDS011;27838;43.858;25.974;2023-04-01T05:21:12;15.90;;;6.40;;
42168;SDS011;27838;43.858;25.974;2023-04-01T05:23:39;58.45;;;38.03;;
42168;SDS011;27838;43.858;25.974;2023-04-01T05:26:10;20.33;;;9.32;;
42168;SDS011;27838;43.858;25.974;2023-04-01T05:28:38;12.73;;;6.35;;
42168;SDS011;27838;43.858;25.974;2023-04-01T05:31:05;17.85;;;4.93;;
42168;SDS011;27838;43.858;25.974;2023-04-01T05:33:33;33.17;;;21.20;;
42168;SDS011;27838;43.858;25.974;2023-04-01T05:36:09;19.45;;;9.95;;
42168;SDS011;27838;43.858;25.974;2023-04-01T05:38:38;16.65;;;7.25;;
42168;SDS011;27838;43.858;25.974;2023-04-01T05:41:05;19.95;;;12.43;;
42168;SDS011;27838;43.858;25.974;2023-04-01T05:43:31;26.95;;;11.18;;
42168;SDS011;27838;43.858;25.974;2023-04-01T05:45:58;30.17;;;12.77;;
42168;SDS011;27838;43.858;25.974;2023-04-01T05:48:24;29.88;;;11.23;;
42168;SDS011;27838;43.858;25.974;2023-04-01T05:50:51;23.38;;;10.75;;
42168;SDS011;27838;43.858;25.974;2023-04-01T05:53:17;24.35;;;10.73;;
42168;SDS011;27838;43.858;25.974;2023-04-01T05:55:44;19.27;;;9.45;;
42168;SDS011;27838;43.858;25.974;2023-04-01T05:58:11;22.77;;;10.15;;
42168;SDS011;27838;43.858;25.974;2023-04-01T06:00:37;21.83;;;9.60;;
42168;SDS011;27838;43.858;25.974;2023-04-01T06:03:05;13.15;;;4.93;;
42168;SDS011;27838;43.858;25.974;2023-04-01T06:05:42;11.68;;;5.03;;
42168;SDS011;27838;43.858;25.974;2023-04-01T06:08:11;16.80;;;4.68;;
42168;SDS011;27838;43.858;25.974;2023-04-01T06:10:59;16.88;;;5.22;;
42168;SDS011;27838;43.858;25.974;2023-04-01T06:22:57;7.38;;;4.50;;
42168;SDS011;27838;43.858;25.974;2023-04-01T06:25:34;10.93;;;5.50;;
42168;SDS011;27838;43.858;25.974;2023-04-01T06:34:03;17.70;;;6.25;;
42168;SDS011;27838;43.858;25.974;2023-04-01T06:37:00;23.65;;;5.90;;
42168;SDS011;27838;43.858;25.974;2023-04-01T06:53:44;15.43;;;6.10;;
42168;SDS011;27838;43.858;25.974;2023-04-01T06:56:36;23.23;;;7.38;;
42168;SDS011;27838;43.858;25.974;2023-04-01T06:59:12;38.20;;;18.60;;
42168;SDS011;27838;43.858;25.974;2023-04-01T07:01:46;33.17;;;16.58;;
42168;SDS011;27838;43.858;25.974;2023-04-01T07:06:53;23.80;;;11.13;;
42168;SDS011;27838;43.858;25.974;2023-04-01T07:12:11;43.22;;;26.17;;
42168;SDS011;27838;43.858;25.974;2023-04-01T07:14:45;23.65;;;15.50;;
42168;SDS011;27838;43.858;25.974;2023-04-01T07:17:22;10.63;;;5.85;;
42168;SDS011;27838;43.858;25.974;2023-04-01T07:22:49;15.57;;;8.18;;
42168;SDS011;27838;43.858;25.974;2023-04-01T07:25:20;11.43;;;5.63;;
42168;SDS011;27838;43.858;25.974;2023-04-01T07:30:19;24.23;;;12.00;;
42168;SDS011;27838;43.858;25.974;2023-04-01T07:32:56;14.77;;;5.63;;
42168;SDS011;27838;43.858;25.974;2023-04-01T07:38:26;12.88;;;5.03;;
42168;SDS011;27838;43.858;25.974;2023-04-01T07:41:44;17.50;;;6.50;;
42168;SDS011;27838;43.858;25.974;2023-04-01T07:47:10;30.92;;;19.05;;
42168;SDS011;27838;43.858;25.974;2023-04-01T07:50:02;19.50;;;10.50;;
42168;SDS011;27838;43.858;25.974;2023-04-01T07:57:55;9.43;;;6.60;;
42168;SDS011;27838;43.858;25.974;2023-04-01T08:05:57;20.83;;;7.05;;
42168;SDS011;27838;43.858;25.974;2023-04-01T08:13:53;17.83;;;8.27;;
42168;SDS011;27838;43.858;25.974;2023-04-01T08:19:15;13.60;;;7.88;;
42168;SDS011;27838;43.858;25.974;2023-04-01T08:22:08;18.10;;;6.97;;
42168;SDS011;27838;43.858;25.974;2023-04-01T08:24:44;10.70;;;6.07;;
42168;SDS011;27838;43.858;25.974;2023-04-01T08:27:15;12.93;;;7.15;;
42168;SDS011;27838;43.858;25.974;2023-04-01T08:35:38;16.58;;;6.38;;
42168;SDS011;27838;43.858;25.974;2023-04-01T08:38:13;32.75;;;20.00;;
42168;SDS011;27838;43.858;25.974;2023-04-01T08:40:55;34.80;;;19.35;;
42168;SDS011;27838;43.858;25.974;2023-04-01T08:46:27;21.30;;;11.35;;
42168;SDS011;27838;43.858;25.974;2023-04-01T08:49:04;12.85;;;5.55;;
42168;SDS011;27838;43.858;25.974;2023-04-01T08:54:37;15.38;;;5.65;;
42168;SDS011;27838;43.858;25.974;2023-04-01T09:02:54;15.73;;;5.20;;
42168;SDS011;27838;43.858;25.974;2023-04-01T09:05:42;18.70;;;6.78;;
42168;SDS011;27838;43.858;25.974;2023-04-01T09:13:58;15.23;;;3.90;;
42168;SDS011;27838;43.858;25.974;2023-04-01T09:19:51;16.23;;;5.72;;
42168;SDS011;27838;43.858;25.974;2023-04-01T09:22:37;21.88;;;6.38;;
42168;SDS011;27838;43.858;25.974;2023-04-01T09:28:12;28.52;;;14.07;;
42168;SDS011;27838;43.858;25.974;2023-04-01T09:47:25;14.38;;;7.35;;
42168;SDS011;27838;43.858;25.974;2023-04-01T09:58:10;8.80;;;5.70;;
42168;SDS011;27838;43.858;25.974;2023-04-01T10:06:44;11.75;;;5.07;;
42168;SDS011;27838;43.858;25.974;2023-04-01T10:15:15;12.63;;;5.22;;
42168;SDS011;27838;43.858;25.974;2023-04-01T10:39:49;12.52;;;4.10;;
42168;SDS011;27838;43.858;25.974;2023-04-01T10:42:49;9.48;;;3.13;;
42168;SDS011;27838;43.858;25.974;2023-04-01T10:54:46;9.60;;;3.58;;
42168;SDS011;27838;43.858;25.974;2023-04-01T10:58:26;9.65;;;3.78;;
42168;SDS011;27838;43.858;25.974;2023-04-01T11:12:26;10.07;;;4.45;;
42168;SDS011;27838;43.858;25.974;2023-04-01T11:18:22;13.75;;;5.78;;
42168;SDS011;27838;43.858;25.974;2023-04-01T11:29:09;12.82;;;5.80;;
42168;SDS011;27838;43.858;25.974;2023-04-01T11:31:58;11.55;;;6.30;;
42168;SDS011;27838;43.858;25.974;2023-04-01T11:37:04;14.02;;;5.93;;
42168;SDS011;27838;43.858;25.974;2023-04-01T12:13:13;17.20;;;7.95;;
42168;SDS011;27838;43.858;25.974;2023-04-01T12:32:26;11.52;;;6.57;;
42168;SDS011;27838;43.858;25.974;2023-04-01T12:35:18;13.50;;;6.78;;
42168;SDS011;27838;43.858;25.974;2023-04-01T13:06:49;12.90;;;6.60;;
42168;SDS011;27838;43.858;25.974;2023-04-01T13:23:35;21.67;;;7.47;;
42168;SDS011;27838;43.858;25.974;2023-04-01T13:26:24;18.67;;;9.25;;
42168;SDS011;27838;43.858;25.974;2023-04-01T13:46:12;14.88;;;7.22;;
42168;SDS011;27838;43.858;25.974;2023-04-01T14:10:51;28.42;;;9.63;;
42168;SDS011;27838;43.858;25.974;2023-04-01T14:16:24;30.80;;;9.85;;
42168;SDS011;27838;43.858;25.974;2023-04-01T14:21:56;19.10;;;8.82;;
42168;SDS011;27838;43.858;25.974;2023-04-01T14:27:55;14.15;;;7.88;;
42168;SDS011;27838;43.858;25.974;2023-04-01T14:47:47;15.70;;;8.35;;
42168;SDS011;27838;43.858;25.974;2023-04-01T14:50:41;18.35;;;9.02;;
42168;SDS011;27838;43.858;25.974;2023-04-01T14:56:00;14.27;;;8.38;;
42168;SDS011;27838;43.858;25.974;2023-04-01T15:07:02;11.88;;;7.40;;
42168;SDS011;27838;43.858;25.974;2023-04-01T15:09:54;13.02;;;7.63;;
42168;SDS011;27838;43.858;25.974;2023-04-01T15:12:46;17.15;;;8.95;;
42168;SDS011;27838;43.858;25.974;2023-04-01T15:21:49;18.52;;;9.93;;
42168;SDS011;27838;43.858;25.974;2023-04-01T15:30:15;16.27;;;8.70;;
42168;SDS011;27838;43.858;25.974;2023-04-01T15:35:37;18.27;;;8.98;;
42168;SDS011;27838;43.858;25.974;2023-04-01T15:38:06;14.15;;;7.90;;
42168;SDS011;27838;43.858;25.974;2023-04-01T15:43:50;12.35;;;7.22;;
42168;SDS011;27838;43.858;25.974;2023-04-01T15:46:26;11.20;;;7.40;;
42168;SDS011;27838;43.858;25.974;2023-04-01T15:49:09;13.45;;;7.00;;
42168;SDS011;27838;43.858;25.974;2023-04-01T15:57:06;17.33;;;10.25;;
42168;SDS011;27838;43.858;25.974;2023-04-01T16:02:20;15.25;;;7.97;;
42168;SDS011;27838;43.858;25.974;2023-04-01T16:05:03;21.50;;;12.75;;
42168;SDS011;27838;43.858;25.974;2023-04-01T16:07:42;16.30;;;9.82;;
42168;SDS011;27838;43.858;25.974;2023-04-01T16:13:14;11.57;;;6.20;;
42168;SDS011;27838;43.858;25.974;2023-04-01T16:15:55;10.68;;;5.55;;
42168;SDS011;27838;43.858;25.974;2023-04-01T16:21:38;13.75;;;8.27;;
42168;SDS011;27838;43.858;25.974;2023-04-01T16:24:19;15.18;;;8.05;;
42168;SDS011;27838;43.858;25.974;2023-04-01T16:26:57;18.02;;;6.03;;
42168;SDS011;27838;43.858;25.974;2023-04-01T16:29:49;11.38;;;5.95;;
42168;SDS011;27838;43.858;25.974;2023-04-01T16:32:44;12.05;;;6.57;;
42168;SDS011;27838;43.858;25.974;2023-04-01T16:35:20;14.35;;;7.38;;
42168;SDS011;27838;43.858;25.974;2023-04-01T16:38:16;11.43;;;6.57;;
42168;SDS011;27838;43.858;25.974;2023-04-01T16:43:47;19.05;;;9.30;;
42168;SDS011;27838;43.858;25.974;2023-04-01T16:56:50;16.83;;;8.25;;
42168;SDS011;27838;43.858;25.974;2023-04-01T16:59:22;15.48;;;7.60;;
42168;SDS011;27838;43.858;25.974;2023-04-01T17:09:46;12.02;;;7.65;;
42168;SDS011;27838;43.858;25.974;2023-04-01T17:15:28;16.48;;;7.68;;
42168;SDS011;27838;43.858;25.974;2023-04-01T17:20:43;13.38;;;7.50;;
42168;SDS011;27838;43.858;25.974;2023-04-01T17:31:45;17.58;;;10.32;;
42168;SDS011;27838;43.858;25.974;2023-04-01T17:43:01;13.25;;;7.88;;
42168;SDS011;27838;43.858;25.974;2023-04-01T17:45:57;19.10;;;11.10;;
42168;SDS011;27838;43.858;25.974;2023-04-01T17:48:32;14.27;;;8.90;;
42168;SDS011;27838;43.858;25.974;2023-04-01T17:53:47;16.25;;;8.88;;
42168;SDS011;27838;43.858;25.974;2023-04-01T17:59:35;12.45;;;8.20;;
42168;SDS011;27838;43.858;25.974;2023-04-01T18:13:59;14.32;;;7.38;;
42168;SDS011;27838;43.858;25.974;2023-04-01T18:20:14;11.15;;;6.18;;
42168;SDS011;27838;43.858;25.974;2023-04-01T18:22:44;13.50;;;6.00;;
42168;SDS011;27838;43.858;25.974;2023-04-01T18:28:12;19.58;;;8.05;;
42168;SDS011;27838;43.858;25.974;2023-04-01T18:30:49;18.65;;;10.25;;
42168;SDS011;27838;43.858;25.974;2023-04-01T18:33:21;18.25;;;7.93;;
42168;SDS011;27838;43.858;25.974;2023-04-01T18:36:09;15.00;;;7.07;;
42168;SDS011;27838;43.858;25.974;2023-04-01T18:39:01;15.23;;;6.50;;
42168;SDS011;27838;43.858;25.974;2023-04-01T18:49:55;17.02;;;11.50;;
42168;SDS011;27838;43.858;25.974;2023-04-01T18:52:33;16.15;;;8.90;;
42168;SDS011;27838;43.858;25.974;2023-04-01T19:02:51;12.40;;;7.30;;
42168;SDS011;27838;43.858;25.974;2023-04-01T19:05:47;14.65;;;7.50;;
42168;SDS011;27838;43.858;25.974;2023-04-01T19:08:38;15.50;;;7.43;;
42168;SDS011;27838;43.858;25.974;2023-04-01T19:11:09;16.73;;;7.93;;
42168;SDS011;27838;43.858;25.974;2023-04-01T19:19:00;14.70;;;7.63;;
42168;SDS011;27838;43.858;25.974;2023-04-01T19:21:41;13.75;;;7.70;;
42168;SDS011;27838;43.858;25.974;2023-04-01T19:44:16;18.08;;;10.52;;
42168;SDS011;27838;43.858;25.974;2023-04-01T19:52:21;15.80;;;7.47;;
42168;SDS011;27838;43.858;25.974;2023-04-01T20:01:05;14.25;;;7.70;;
42168;SDS011;27838;43.858;25.974;2023-04-01T20:03:42;19.30;;;9.65;;
42168;SDS011;27838;43.858;25.974;2023-04-01T20:09:24;11.48;;;7.20;;
42168;SDS011;27838;43.858;25.974;2023-04-01T20:12:27;10.27;;;5.70;;
42168;SDS011;27838;43.858;25.974;2023-04-01T20:15:22;6.93;;;4.47;;
42168;SDS011;27838;43.858;25.974;2023-04-01T20:17:57;6.28;;;4.13;;
42168;SDS011;27838;43.858;25.974;2023-04-01T20:20:28;6.90;;;4.70;;
42168;SDS011;27838;43.858;25.974;2023-04-01T20:23:01;8.15;;;4.45;;
42168;SDS011;27838;43.858;25.974;2023-04-01T20:25:40;9.40;;;4.47;;
42168;SDS011;27838;43.858;25.974;2023-04-01T20:51:29;1.90;;;1.70;;
42168;SDS011;27838;43.858;25.974;2023-04-01T20:54:12;22.20;;;11.07;;
42168;SDS011;27838;43.858;25.974;2023-04-01T21:00:24;1.30;;;1.10;;
42168;SDS011;27838;43.858;25.974;2023-04-01T21:03:06;1.63;;;1.10;;
42168;SDS011;27838;43.858;25.974;2023-04-01T21:11:18;1.30;;;1.08;;
42168;SDS011;27838;43.858;25.974;2023-04-01T21:17:13;2.13;;;1.10;;
42168;SDS011;27838;43.858;25.974;2023-04-01T21:20:04;2.50;;;1.45;;
42168;SDS011;27838;43.858;25.974;2023-04-01T21:25:46;3.88;;;1.38;;
42168;SDS011;27838;43.858;25.974;2023-04-01T21:28:35;1.70;;;1.00;;
42168;SDS011;27838;43.858;25.974;2023-04-01T21:34:49;3.33;;;1.02;;
42168;SDS011;27838;43.858;25.974;2023-04-01T22:01:58;0.63;;;0.63;;
42168;SDS011;27838;43.858;25.974;2023-04-01T22:04:41;0.60;;;0.60;;
42168;SDS011;27838;43.858;25.974;2023-04-01T22:07:25;2.35;;;1.02;;
42168;SDS011;27838;43.858;25.974;2023-04-01T22:10:05;3.15;;;0.98;;
42168;SDS011;27838;43.858;25.974;2023-04-01T22:12:54;0.80;;;0.80;;
42168;SDS011;27838;43.858;25.974;2023-04-01T22:18:33;6.10;;;1.05;;
42168;SDS011;27838;43.858;25.974;2023-04-01T22:21:07;1.65;;;1.00;;
42168;SDS011;27838;43.858;25.974;2023-04-01T22:26:32;1.30;;;0.93;;
42168;SDS011;27838;43.858;25.974;2023-04-01T22:29:31;1.83;;;1.05;;
42168;SDS011;27838;43.858;25.974;2023-04-01T22:32:43;1.20;;;0.90;;
42168;SDS011;27838;43.858;25.974;2023-04-01T22:44:05;2.25;;;1.48;;
42168;SDS011;27838;43.858;25.974;2023-04-01T22:47:00;1.05;;;1.00;;
42168;SDS011;27838;43.858;25.974;2023-04-01T22:50:03;1.20;;;1.02;;
42168;SDS011;27838;43.858;25.974;2023-04-01T22:52:55;4.03;;;1.10;;
42168;SDS011;27838;43.858;25.974;2023-04-01T22:55:30;1.25;;;1.00;;
42168;SDS011;27838;43.858;25.974;2023-04-01T22:58:14;1.42;;;1.13;;
42168;SDS011;27838;43.858;25.974;2023-04-01T23:00:45;2.00;;;1.05;;
42168;SDS011;27838;43.858;25.974;2023-04-01T23:03:31;1.63;;;1.00;;
42168;SDS011;27838;43.858;25.974;2023-04-01T23:06:01;1.55;;;1.20;;
42168;SDS011;27838;43.858;25.974;2023-04-01T23:13:45;1.20;;;1.10;;
42168;SDS011;27838;43.858;25.974;2023-04-01T23:16:20;5.03;;;3.95;;
42168;SDS011;27838;43.858;25.974;2023-04-01T23:21:41;2.78;;;1.17;;
42168;SDS011;27838;43.858;25.974;2023-04-01T23:29:43;1.17;;;1.10;;
42168;SDS011;27838;43.858;25.974;2023-04-01T23:32:16;1.30;;;1.20;;
42168;SDS011;27838;43.858;25.974;2023-04-01T23:34:49;2.97;;;1.10;;
42168;SDS011;27838;43.858;25.974;2023-04-01T23:37:18;2.53;;;0.88;;
42168;SDS011;27838;43.858;25.974;2023-04-01T23:39:48;1.65;;;0.95;;
42168;SDS011;27838;43.858;25.974;2023-04-01T23:42:25;5.85;;;3.67;;
42168;SDS011;27838;43.858;25.974;2023-04-01T23:45:05;1.20;;;1.10;;
42168;SDS011;27838;43.858;25.974;2023-04-01T23:47:51;1.15;;;0.98;;
42168;SDS011;27838;43.858;25.974;2023-04-01T23:53:21;1.63;;;1.05;;
42168;SDS011;27838;43.858;25.974;2023-04-01T23:55:48;1.67;;;1.00;;
42168;SDS011;27838;43.858;25.974;2023-04-01T23:58:22;1.10;;;1.00;;
